Time;durP1;ratioP1;P1;durP2;ratioP2;P2;SDS_P1;SDS_P2;PMS_P1;PMS_P2;Temp;Humidity;BMP_temperature;BMP_pressure;BME280_temperature;BME280_humidity;BME280_pressure;Samples;Min_cycle;Max_cycle;Signal;HPM_P1;HPM_P2
2022/07/22 00:01:55;;;;;;;3.28;2.50;;;;;;;16.68;69.15;99399.84;5052927;28;20515;-61
2022/07/22 00:04:20;;;;;;;9.50;2.33;;;;;;;16.78;68.62;99389.69;5052868;28;20466;-60
2022/07/22 00:06:46;;;;;;;3.05;2.40;;;;;;;16.74;68.98;99401.84;5053170;28;20033;-60
2022/07/22 00:09:11;;;;;;;4.25;2.30;;;;;;;16.74;68.79;99402.69;5052963;28;20032;-59
2022/07/22 00:11:37;;;;;;;2.53;2.30;;;;;;;16.69;68.87;99391.56;5052840;28;20393;-61
2022/07/22 00:14:02;;;;;;;5.28;2.50;;;;;;;16.68;69.40;99406.09;5035214;28;20029;-61
2022/07/22 00:16:28;;;;;;;3.78;2.70;;;;;;;16.63;69.29;99405.75;5052679;28;20032;-60
2022/07/22 00:18:54;;;;;;;4.40;2.22;;;;;;;16.60;69.63;99406.97;5052680;28;20025;-59
2022/07/22 00:21:19;;;;;;;3.90;2.58;;;;;;;16.59;69.65;99393.63;5052727;28;20035;-60
2022/07/22 00:23:44;;;;;;;3.85;2.33;;;;;;;16.56;69.72;99400.22;5052945;28;20035;-61
2022/07/22 00:26:10;;;;;;;1.98;1.77;;;;;;;16.57;69.72;99401.06;5051069;28;20064;-60
2022/07/22 00:28:35;;;;;;;3.45;2.53;;;;;;;16.53;69.87;99402.44;5052508;28;20056;-59
2022/07/22 00:31:01;;;;;;;3.85;2.78;;;;;;;16.56;69.75;99400.22;5052563;28;20108;-61
2022/07/22 00:33:27;;;;;;;6.60;2.83;;;;;;;16.54;69.82;99396.88;5052467;28;20079;-59
2022/07/22 00:35:53;;;;;;;8.23;2.35;;;;;;;16.54;69.90;99390.59;5052228;28;20029;-60
2022/07/22 00:38:18;;;;;;;6.63;2.80;;;;;;;16.57;69.76;99398.34;5052615;28;20574;-62
2022/07/22 00:40:44;;;;;;;7.93;2.92;;;;;;;16.55;69.90;99403.94;5052651;28;20029;-58
2022/07/22 00:43:09;;;;;;;10.75;2.22;;;;;;;16.38;69.70;99373.41;5052039;28;20507;-60
2022/07/22 00:45:35;;;;;;;2.85;2.28;;;;;;;16.53;69.89;99402.44;5051985;28;20028;-60
2022/07/22 00:48:00;;;;;;;4.28;2.38;;;;;;;16.45;69.95;99389.78;5052260;28;20464;-60
2022/07/22 00:50:26;;;;;;;6.35;2.47;;;;;;;16.53;69.75;99407.84;5052070;28;20025;-61
2022/07/22 00:52:52;;;;;;;4.97;2.15;;;;;;;16.53;69.96;99405.97;5051981;28;20029;-60
2022/07/22 00:55:18;;;;;;;2.90;2.38;;;;;;;16.52;70.06;99400.75;5052382;28;20063;-61
2022/07/22 00:57:43;;;;;;;2.50;1.90;;;;;;;16.48;69.83;99387.59;5050781;28;20029;-60
2022/07/22 01:00:13;;;;;;;4.13;2.38;;;;;;;16.52;69.83;99396.19;5051934;28;20512;-60
2022/07/22 01:02:39;;;;;;;3.47;2.17;;;;;;;16.48;70.22;99395.69;5051686;28;20396;-58
2022/07/22 01:05:06;;;;;;;2.95;2.30;;;;;;;16.47;70.21;99412.91;5051659;28;20036;-60
2022/07/22 01:07:32;;;;;;;3.25;2.08;;;;;;;16.47;70.14;99393.16;5052097;28;20049;-60
2022/07/22 01:09:57;;;;;;;4.15;2.70;;;;;;;16.35;70.27;99384.56;5051690;28;20025;-60
2022/07/22 01:12:23;;;;;;;3.47;2.60;;;;;;;16.43;70.44;99414.28;5051567;28;20036;-59
2022/07/22 01:14:49;;;;;;;2.33;1.90;;;;;;;16.44;70.34;99407.84;5052260;28;20427;-59
2022/07/22 01:17:14;;;;;;;2.85;2.35;;;;;;;16.35;70.40;99398.06;5051701;28;20039;-60
2022/07/22 01:19:40;;;;;;;2.50;2.30;;;;;;;16.41;70.49;99416.31;5050399;28;20600;-60
2022/07/22 01:22:06;;;;;;;9.18;2.30;;;;;;;16.44;70.22;99407.84;5051586;28;20025;-60
2022/07/22 01:24:32;;;;;;;3.13;2.42;;;;;;;16.42;70.51;99418.00;5051541;28;20029;-60
2022/07/22 01:26:58;;;;;;;4.85;2.35;;;;;;;16.39;70.76;99418.31;5051432;28;20032;-60
2022/07/22 01:29:23;;;;;;;4.50;2.22;;;;;;;16.43;70.30;99421.53;5051572;28;20465;-60
2022/07/22 01:31:49;;;;;;;5.03;2.50;;;;;;;16.41;70.52;99419.00;5051704;28;20029;-62
2022/07/22 01:34:14;;;;;;;4.65;2.35;;;;;;;16.42;70.29;99428.81;5050045;28;20025;-61
2022/07/22 01:36:40;;;;;;;5.32;2.45;;;;;;;16.43;70.56;99425.09;5051526;28;20546;-60
2022/07/22 01:39:05;;;;;;;6.28;2.22;;;;;;;16.40;70.24;99411.94;5051381;28;20516;-60
2022/07/22 01:41:31;;;;;;;3.28;2.25;;;;;;;16.46;70.61;99435.53;5051157;28;20127;-60
2022/07/22 01:43:57;;;;;;;2.08;1.80;;;;;;;16.49;70.41;99424.41;5051358;28;20036;-61
2022/07/22 01:46:23;;;;;;;4.47;2.40;;;;;;;16.44;70.19;99420.50;5051049;28;20069;-62
2022/07/22 01:48:52;;;;;;;4.22;2.60;;;;;;;16.61;70.29;99442.94;5051395;28;20049;-60
2022/07/22 01:51:19;;;;;;;3.50;2.80;;;;;;;16.66;69.62;99432.47;5051493;28;20033;-60
2022/07/22 01:53:45;;;;;;;4.07;2.40;;;;;;;16.74;69.57;99437.84;5051169;28;20029;-61
2022/07/22 01:56:10;;;;;;;4.88;2.80;;;;;;;16.85;69.13;99420.41;5051283;28;20032;-59
2022/07/22 01:58:36;;;;;;;3.08;2.50;;;;;;;16.94;68.74;99432.84;5051190;28;20388;-60
2022/07/22 02:01:01;;;;;;;3.90;2.65;;;;;;;16.91;68.75;99421.56;5051146;28;20434;-59
2022/07/22 02:03:27;;;;;;;4.43;2.70;;;;;;;16.98;68.81;99433.38;5049681;28;20041;-59
2022/07/22 02:05:53;;;;;;;4.72;2.55;;;;;;;17.06;68.31;99433.34;5051225;28;20037;-61
2022/07/22 02:08:18;;;;;;;4.15;2.50;;;;;;;17.01;68.56;99435.75;5051393;28;20478;-61
2022/07/22 02:10:44;;;;;;;5.18;2.80;;;;;;;17.01;68.22;99430.34;5051147;28;20052;-60
2022/07/22 02:13:10;;;;;;;4.32;2.90;;;;;;;17.07;68.38;99443.16;5049638;28;20538;-60
2022/07/22 02:15:36;;;;;;;4.15;2.33;;;;;;;17.11;68.25;99443.66;5051006;28;20041;-60
2022/07/22 02:18:10;;;;;;;5.18;2.92;;;;;;;17.20;68.37;99448.00;5050915;28;20028;-60
2022/07/22 02:20:36;;;;;;;4.57;2.37;;;;;;;17.13;68.19;99444.31;5051094;28;20484;-61
2022/07/22 02:23:01;;;;;;;5.20;2.53;;;;;;;17.11;68.18;99432.81;5054696;28;20021;-60
2022/07/22 02:25:27;;;;;;;4.13;2.50;;;;;;;17.19;67.94;99445.47;5054862;28;20063;-60
2022/07/22 02:27:52;;;;;;;3.95;2.60;;;;;;;17.25;67.68;99450.19;5055121;28;20071;-60
2022/07/22 02:30:17;;;;;;;8.57;2.60;;;;;;;17.16;67.52;99425.03;5054854;28;20032;-60
2022/07/22 02:32:43;;;;;;;3.85;2.08;;;;;;;17.57;66.74;99458.28;5054656;28;20036;-59
2022/07/22 02:35:08;;;;;;;4.53;2.40;;;;;;;17.75;66.15;99463.41;5054993;28;20541;-60
2022/07/22 02:37:34;;;;;;;3.88;2.45;;;;;;;17.87;65.65;99461.13;5053266;28;20143;-60
2022/07/22 02:40:00;;;;;;;2.50;2.30;;;;;;;17.97;65.07;99453.63;5054559;28;20064;-61
2022/07/22 02:42:25;;;;;;;3.88;2.67;;;;;;;18.27;63.93;99466.44;5055142;28;20056;-63
2022/07/22 02:44:51;;;;;;;4.05;2.70;;;;;;;18.21;64.31;99465.31;5055006;28;20036;-61
2022/07/22 02:47:16;;;;;;;5.90;2.83;;;;;;;18.22;64.00;99467.81;5054317;28;20029;-61
2022/07/22 02:49:42;;;;;;;4.28;3.03;;;;;;;18.21;64.40;99471.56;5054478;28;20170;-60
2022/07/22 02:52:07;;;;;;;5.95;2.70;;;;;;;18.21;64.21;99471.56;5054553;28;20066;-60
2022/07/22 02:54:33;;;;;;;5.97;2.70;;;;;;;18.17;63.95;99478.38;5054371;28;20461;-60
2022/07/22 02:56:58;;;;;;;8.30;2.67;;;;;;;18.16;64.21;99483.97;5054246;28;20025;-60
2022/07/22 02:59:24;;;;;;;5.38;2.72;;;;;;;18.01;64.14;99462.22;5053151;28;20033;-60
2022/07/22 03:01:49;;;;;;;5.47;2.90;;;;;;;18.20;64.06;99485.28;5052898;28;20522;-61
2022/07/22 03:04:15;;;;;;;6.90;2.53;;;;;;;18.21;63.96;99482.41;5054068;28;20052;-60
2022/07/22 03:06:40;;;;;;;6.90;2.90;;;;;;;18.26;63.83;99490.00;5053945;28;20082;-60
2022/07/22 03:09:06;;;;;;;6.07;2.53;;;;;;;18.25;63.76;99487.44;5053906;28;20052;-59
2022/07/22 03:11:31;;;;;;;5.35;2.72;;;;;;;18.27;63.75;99486.25;5054198;28;20121;-59
2022/07/22 03:13:56;;;;;;;4.53;2.13;;;;;;;18.38;63.62;99487.69;5054420;28;20047;-60
2022/07/22 03:16:22;;;;;;;4.60;2.40;;;;;;;18.49;63.16;99489.94;5053798;28;20040;-60
2022/07/22 03:18:47;;;;;;;4.47;2.75;;;;;;;18.62;62.62;99493.91;5053857;28;20044;-60
2022/07/22 03:21:13;;;;;;;5.05;2.17;;;;;;;18.78;62.41;99492.88;5054018;28;20493;-60
2022/07/22 03:23:38;;;;;;;2.83;2.40;;;;;;;18.87;61.96;99482.78;5052664;28;20068;-59
2022/07/22 03:26:04;;;;;;;2.75;2.40;;;;;;;19.03;61.72;99488.03;5053680;28;20428;-60
2022/07/22 03:28:29;;;;;;;4.60;2.40;;;;;;;19.32;60.77;99494.50;5053682;28;20072;-62
2022/07/22 03:30:55;;;;;;;2.47;2.22;;;;;;;19.57;59.32;99461.59;5053974;28;20037;-62
2022/07/22 03:33:20;;;;;;;3.33;2.45;;;;;;;20.29;58.05;99493.47;5053627;28;20032;-60
2022/07/22 03:35:46;;;;;;;4.75;2.30;;;;;;;20.97;55.66;99492.09;5052270;28;20029;-59
2022/07/22 03:38:11;;;;;;;4.43;2.00;;;;;;;21.45;53.76;99474.91;5053263;28;20028;-60
2022/07/22 03:40:37;;;;;;;2.47;2.10;;;;;;;21.98;52.79;99506.13;5053379;28;20086;-61
2022/07/22 03:43:02;;;;;;;3.03;2.30;;;;;;;22.30;51.54;99493.56;5053291;28;20116;-61
2022/07/22 03:45:27;;;;;;;2.85;2.10;;;;;;;22.85;50.06;99517.09;5053514;28;20033;-61
2022/07/22 03:47:54;;;;;;;2.17;2.00;;;;;;;23.26;49.14;99504.19;5053441;28;20020;-59
2022/07/22 03:50:20;;;;;;;2.85;1.90;;;;;;;23.91;47.66;99503.28;5053487;28;20489;-61
2022/07/22 03:52:45;;;;;;;3.00;1.83;;;;;;;24.54;46.09;99505.34;5052095;28;20075;-61
2022/07/22 03:55:11;;;;;;;2.55;1.77;;;;;;;25.32;43.88;99508.59;5053284;28;20070;-59
2022/07/22 03:57:36;;;;;;;3.53;2.00;;;;;;;26.01;42.27;99511.09;5053163;28;20135;-60
2022/07/22 04:00:04;;;;;;;3.13;1.92;;;;;;;26.43;41.64;99525.91;5052905;28;20053;-60
2022/07/22 04:02:30;;;;;;;2.05;1.80;;;;;;;26.67;40.39;99531.41;5053092;28;20049;-63
2022/07/22 04:04:55;;;;;;;2.92;1.88;;;;;;;26.92;39.68;99518.31;5052000;28;20040;-60
2022/07/22 04:07:20;;;;;;;2.97;1.83;;;;;;;27.34;38.75;99525.53;5052935;28;20025;-61
2022/07/22 04:09:46;;;;;;;3.25;1.60;;;;;;;27.69;38.01;99512.78;5052924;28;20099;-62
2022/07/22 04:12:11;;;;;;;1.65;1.52;;;;;;;28.04;37.09;99511.78;5053249;28;20028;-60
2022/07/22 04:14:37;;;;;;;2.13;1.73;;;;;;;28.20;36.57;99512.91;5052925;28;20040;-60
2022/07/22 04:17:02;;;;;;;2.45;1.58;;;;;;;28.48;35.62;99521.34;5051464;28;20025;-61
2022/07/22 04:19:28;;;;;;;2.10;1.60;;;;;;;28.69;35.51;99519.75;5052899;28;20035;-59
2022/07/22 04:21:53;;;;;;;2.45;1.38;;;;;;;29.36;34.07;99529.00;5052343;28;20029;-60
2022/07/22 04:24:19;;;;;;;1.38;1.20;;;;;;;29.34;33.63;99531.19;5051422;28;20036;-60
2022/07/22 04:26:44;;;;;;;3.65;1.50;;;;;;;29.43;33.72;99519.75;5051181;28;20028;-59
2022/07/22 04:29:10;;;;;;;2.22;1.35;;;;;;;30.29;32.71;99531.16;5052190;28;20033;-60
2022/07/22 04:31:35;;;;;;;1.92;1.40;;;;;;;30.78;31.16;99539.31;5052359;28;20033;-60
2022/07/22 04:34:00;;;;;;;2.63;1.23;;;;;;;30.93;30.71;99537.75;5051384;28;20033;-60
2022/07/22 04:36:26;;;;;;;1.60;1.48;;;;;;;31.29;30.36;99545.47;5051024;28;20029;-61
2022/07/22 04:38:51;;;;;;;2.15;1.80;;;;;;;31.38;29.51;99534.72;5051077;28;20465;-60
2022/07/22 04:41:17;;;;;;;3.15;1.42;;;;;;;31.78;29.75;99545.13;5052452;28;20032;-60
2022/07/22 04:43:42;;;;;;;1.67;1.40;;;;;;;32.54;28.64;99538.31;5051571;28;20025;-60
2022/07/22 04:46:08;;;;;;;2.38;1.33;;;;;;;33.40;27.24;99540.41;5052396;28;20037;-60
2022/07/22 04:48:33;;;;;;;3.63;1.02;;;;;;;33.84;26.48;99550.75;5052301;28;20111;-61
2022/07/22 04:51:00;;;;;;;1.92;1.27;;;;;;;34.54;26.02;99542.56;5052569;28;20465;-60
2022/07/22 04:53:26;;;;;;;1.52;1.20;;;;;;;35.30;24.75;99554.03;5051883;28;20033;-62
2022/07/22 04:55:52;;;;;;;2.65;1.63;;;;;;;35.46;23.93;99548.28;5052180;28;20400;-60
2022/07/22 04:58:17;;;;;;;1.60;1.50;;;;;;;35.77;23.63;99553.47;5052334;28;20112;-59
2022/07/22 05:00:43;;;;;;;2.33;1.23;;;;;;;36.35;23.09;99544.00;5051995;28;20445;-60
2022/07/22 05:03:08;;;;;;;1.80;1.50;;;;;;;37.18;22.37;99533.38;5051873;28;20045;-60
2022/07/22 05:05:34;;;;;;;3.30;1.30;;;;;;;37.84;21.37;99537.84;5051936;28;20041;-61
2022/07/22 05:07:59;;;;;;;1.80;1.30;;;;;;;38.01;21.07;99540.00;5052320;28;20067;-60
2022/07/22 05:10:25;;;;;;;3.05;1.42;;;;;;;38.36;20.47;99548.69;5052066;28;20198;-59
2022/07/22 05:12:50;;;;;;;1.55;1.45;;;;;;;38.98;20.00;99555.50;5051635;28;20033;-60
2022/07/22 05:15:16;;;;;;;2.42;1.15;;;;;;;38.92;19.60;99556.78;5051658;28;20025;-59
2022/07/22 05:17:41;;;;;;;2.45;1.40;;;;;;;38.99;19.53;99545.16;5051658;28;20104;-60
2022/07/22 05:20:07;;;;;;;1.30;1.20;;;;;;;39.51;19.56;99561.31;5051660;28;20083;-61
2022/07/22 05:22:33;;;;;;;4.00;1.50;;;;;;;40.26;18.16;99563.22;5051334;28;20033;-60
2022/07/22 05:24:58;;;;;;;2.15;1.50;;;;;;;41.04;17.59;99550.25;5050197;28;20196;-60
2022/07/22 05:27:24;;;;;;;1.63;1.23;;;;;;;41.45;16.99;99555.50;5052001;28;20539;-59
2022/07/22 05:29:49;;;;;;;5.15;1.50;;;;;;;41.58;16.88;99557.25;5051426;28;20047;-61
2022/07/22 05:32:15;;;;;;;2.88;1.40;;;;;;;41.64;16.83;99554.25;5051085;28;20029;-59
2022/07/22 05:34:40;;;;;;;1.75;1.40;;;;;;;41.92;16.47;99551.75;5051483;28;20124;-61
2022/07/22 05:37:06;;;;;;;2.05;1.60;;;;;;;42.28;15.87;99563.56;5051096;28;20021;-60
2022/07/22 05:39:31;;;;;;;1.55;1.27;;;;;;;42.54;16.26;99562.50;5051595;28;20036;-59
2022/07/22 05:41:57;;;;;;;1.85;1.60;;;;;;;42.55;15.39;99534.00;5051341;28;20029;-60
2022/07/22 05:44:22;;;;;;;1.38;1.27;;;;;;;43.02;15.56;99546.06;5050892;28;20533;-60
2022/07/22 05:46:48;;;;;;;3.15;1.50;;;;;;;43.40;15.36;99561.00;5051521;28;20430;-60
2022/07/22 05:49:13;;;;;;;2.70;1.45;;;;;;;43.18;15.03;99560.28;5051140;28;20055;-61
2022/07/22 05:51:38;;;;;;;3.67;1.45;;;;;;;43.65;14.77;99561.81;5051242;28;20041;-61
2022/07/22 05:54:04;;;;;;;6.40;1.60;;;;;;;44.03;14.29;99557.75;5051969;28;20025;-60
2022/07/22 05:56:29;;;;;;;1.45;1.35;;;;;;;44.20;14.11;99569.13;5051586;28;20032;-61
2022/07/22 05:58:58;;;;;;;2.78;1.50;;;;;;;43.91;14.25;99573.88;5055403;28;20028;-60
2022/07/22 06:01:24;;;;;;;1.38;1.27;;;;;;;43.24;14.44;99572.97;5055305;28;20033;-59
2022/07/22 06:03:50;;;;;;;3.88;1.80;;;;;;;43.20;14.82;99563.56;5054949;28;20124;-60
2022/07/22 06:06:16;;;;;;;1.88;1.20;;;;;;;44.44;13.85;99554.91;5055046;28;20116;-60
2022/07/22 06:08:41;;;;;;;2.42;1.30;;;;;;;45.77;12.76;99550.16;5053884;28;20033;-60
2022/07/22 06:11:07;;;;;;;2.85;1.50;;;;;;;46.59;12.23;99557.94;5055395;28;20063;-60
2022/07/22 06:13:33;;;;;;;2.42;1.42;;;;;;;46.94;11.67;99568.28;5055002;28;20029;-60
2022/07/22 06:15:59;;;;;;;4.28;1.80;;;;;;;47.14;11.48;99566.19;5055269;28;20029;-62
2022/07/22 06:18:26;;;;;;;2.67;1.38;;;;;;;47.53;11.66;99570.88;5054948;28;20064;-61
2022/07/22 06:20:52;;;;;;;2.95;1.17;;;;;;;46.72;11.05;99544.41;5054502;28;20063;-61
2022/07/22 06:23:17;;;;;;;1.40;1.30;;;;;;;45.77;12.35;99569.97;5054391;28;20028;-60
2022/07/22 06:25:43;;;;;;;2.47;1.60;;;;;;;45.17;12.87;99554.81;5054837;28;20393;-60
2022/07/22 06:28:09;;;;;;;1.58;1.30;;;;;;;45.30;12.44;99563.19;5054667;28;20396;-62
2022/07/22 06:30:34;;;;;;;2.08;1.35;;;;;;;45.57;12.14;99566.25;5054962;28;20457;-60
2022/07/22 06:33:00;;;;;;;1.58;1.40;;;;;;;44.01;13.54;99550.81;5054890;28;20033;-61
2022/07/22 06:35:25;;;;;;;2.45;1.20;;;;;;;44.11;13.51;99550.31;5054665;28;20025;-59
2022/07/22 06:37:51;;;;;;;4.78;1.23;;;;;;;44.96;13.40;99572.03;5054499;28;20024;-60
2022/07/22 06:40:17;;;;;;;1.90;1.42;;;;;;;46.06;12.18;99586.75;5054686;28;20093;-61
2022/07/22 06:42:42;;;;;;;1.98;1.30;;;;;;;44.02;13.27;99553.28;5054468;28;20048;-60
2022/07/22 06:45:08;;;;;;;1.52;1.20;;;;;;;42.69;14.43;99559.03;5054936;28;20033;-61
2022/07/22 06:47:35;;;;;;;2.55;1.30;;;;;;;42.35;14.87;99571.44;5054380;28;20021;-60
2022/07/22 06:50:06;;;;;;;1.58;1.10;;;;;;;42.16;15.34;99581.19;5054143;28;20029;-60
2022/07/22 06:52:31;;;;;;;2.28;1.63;;;;;;;42.67;14.88;99569.78;5054421;28;20033;-60
2022/07/22 06:54:57;;;;;;;1.73;1.33;;;;;;;43.12;14.82;99561.69;5054398;28;20040;-60
2022/07/22 06:57:22;;;;;;;1.92;1.00;;;;;;;43.38;14.04;99574.63;5053874;28;20437;-61
2022/07/22 06:59:47;;;;;;;3.22;1.38;;;;;;;43.68;14.13;99571.56;5054048;28;20055;-60
2022/07/22 07:02:13;;;;;;;2.38;1.38;;;;;;;44.99;12.93;99568.47;5053974;28;20075;-61
2022/07/22 07:04:39;;;;;;;2.97;1.40;;;;;;;44.88;13.05;99567.38;5053919;28;20033;-59
2022/07/22 07:07:04;;;;;;;2.63;1.10;;;;;;;45.90;12.16;99573.47;5053334;28;20211;-61
2022/07/22 07:09:30;;;;;;;1.98;1.40;;;;;;;46.64;11.42;99559.63;5053619;28;20048;-61
2022/07/22 07:11:55;;;;;;;1.60;1.50;;;;;;;46.64;11.15;99574.59;5053922;28;20396;-60
2022/07/22 07:14:21;;;;;;;1.17;1.00;;;;;;;44.73;12.49;99549.22;5052350;28;20033;-61
2022/07/22 07:16:46;;;;;;;1.35;1.10;;;;;;;44.14;13.12;99568.53;5053508;28;20024;-61
2022/07/22 07:19:12;;;;;;;3.08;1.20;;;;;;;42.88;14.16;99575.41;5053420;28;20040;-62
2022/07/22 07:21:37;;;;;;;0.93;0.93;;;;;;;43.96;13.41;99570.81;5054003;28;20031;-60
2022/07/22 07:24:03;;;;;;;1.38;1.27;;;;;;;43.30;13.72;99574.41;5052659;28;20060;-61
2022/07/22 07:26:28;;;;;;;3.08;1.30;;;;;;;44.08;13.06;99565.13;5053525;28;20082;-61
2022/07/22 07:28:54;;;;;;;2.38;1.35;;;;;;;44.98;12.91;99566.84;5053703;28;20086;-61
2022/07/22 07:31:19;;;;;;;2.53;1.40;;;;;;;46.76;11.59;99562.28;5053389;28;20063;-60
2022/07/22 07:33:44;;;;;;;2.53;1.27;;;;;;;46.30;11.31;99568.66;5053246;28;20032;-60
2022/07/22 07:36:10;;;;;;;1.30;1.05;;;;;;;45.55;11.54;99549.66;5053717;28;20025;-61
2022/07/22 07:38:36;;;;;;;1.38;1.00;;;;;;;45.59;11.69;99575.19;5053324;28;20025;-59
2022/07/22 07:41:02;;;;;;;1.50;1.20;;;;;;;46.97;11.11;99569.56;5053580;28;20035;-61
2022/07/22 07:43:28;;;;;;;0.93;0.93;;;;;;;48.08;10.38;99578.13;5052872;28;20527;-61
2022/07/22 07:45:53;;;;;;;1.20;1.10;;;;;;;48.22;9.57;99570.97;5052740;28;20033;-62
2022/07/22 07:48:19;;;;;;;2.33;1.25;;;;;;;46.91;10.40;99562.53;5053622;28;20469;-59
2022/07/22 07:50:44;;;;;;;1.58;1.20;;;;;;;47.09;11.02;99563.66;5053159;28;20079;-61
2022/07/22 07:53:14;;;;;;;1.65;0.95;;;;;;;48.79;9.94;99565.16;5053540;28;20473;-61
2022/07/22 07:55:40;;;;;;;2.25;1.23;;;;;;;49.02;9.55;99560.50;5053354;28;20124;-61
2022/07/22 07:58:06;;;;;;;1.30;1.23;;;;;;;47.56;9.91;99570.09;5052894;28;20035;-61
2022/07/22 08:00:33;;;;;;;2.60;1.13;;;;;;;46.72;10.98;99570.69;5052729;28;20064;-61
2022/07/22 08:03:00;;;;;;;2.38;1.02;;;;;;;47.84;10.05;99570.91;5053104;28;20045;-60
2022/07/22 08:05:26;;;;;;;2.15;1.15;;;;;;;48.53;10.02;99583.94;5053098;28;20041;-61
2022/07/22 08:07:51;;;;;;;4.25;1.25;;;;;;;48.73;9.81;99565.91;5053215;28;20162;-61
2022/07/22 08:10:18;;;;;;;2.58;1.55;;;;;;;48.52;9.91;99567.31;5053004;28;20032;-62
2022/07/22 08:12:44;;;;;;;3.33;1.70;;;;;;;48.11;10.31;99570.84;5053193;28;20123;-63
2022/07/22 08:15:10;;;;;;;2.90;1.70;;;;;;;47.32;10.89;99562.03;5052566;28;20171;-61
2022/07/22 08:17:35;;;;;;;2.65;1.27;;;;;;;46.70;11.11;99555.31;5052478;28;20174;-62
2022/07/22 08:20:01;;;;;;;3.28;1.52;;;;;;;45.72;11.70;99556.13;5052230;28;20025;-61
2022/07/22 08:22:26;;;;;;;1.15;1.05;;;;;;;43.22;13.59;99549.13;5052773;28;20495;-61
2022/07/22 08:24:53;;;;;;;0.77;0.77;;;;;;;42.02;14.17;99568.22;5051072;28;20090;-59
2022/07/22 08:27:19;;;;;;;1.42;1.13;;;;;;;39.34;16.83;99579.72;5052783;28;20098;-59
2022/07/22 08:29:45;;;;;;;1.17;1.08;;;;;;;37.12;18.70;99579.25;5052859;28;20057;-64
2022/07/22 08:32:10;;;;;;;2.72;1.00;;;;;;;35.12;20.61;99574.28;5052698;28;20526;-60
2022/07/22 08:34:36;;;;;;;1.00;1.00;;;;;;;33.27;23.58;99584.25;5052273;28;20048;-61
2022/07/22 08:37:01;;;;;;;2.40;1.20;;;;;;;31.43;25.78;99584.53;5052648;28;20370;-60
2022/07/22 08:39:27;;;;;;;1.38;1.27;;;;;;;30.90;27.07;99585.28;5052607;28;20039;-61
2022/07/22 08:41:53;;;;;;;1.40;1.00;;;;;;;30.57;28.23;99587.19;5052415;28;20035;-60
2022/07/22 08:44:19;;;;;;;5.57;1.30;;;;;;;30.46;28.66;99581.59;5052021;28;20074;-60
2022/07/22 08:46:46;;;;;;;4.95;1.38;;;;;;;30.29;28.98;99600.19;5051109;28;20041;-60
2022/07/22 08:49:16;;;;;;;5.18;1.52;;;;;;;29.96;29.77;99591.81;5052674;28;20031;-61
2022/07/22 08:51:41;;;;;;;1.73;1.25;;;;;;;29.70;30.15;99593.44;5052408;28;20028;-60
2022/07/22 08:54:07;;;;;;;4.63;0.95;;;;;;;29.42;29.57;99590.59;5050449;28;20029;-60
2022/07/22 08:56:33;;;;;;;2.65;1.10;;;;;;;29.23;30.17;99593.63;5052089;28;20485;-61
2022/07/22 08:58:58;;;;;;;1.75;1.30;;;;;;;29.05;30.31;99589.22;5052324;28;20021;-61
2022/07/22 09:01:24;;;;;;;1.48;1.33;;;;;;;28.90;29.85;99609.13;5051632;28;20054;-59
2022/07/22 09:03:57;;;;;;;1.42;1.25;;;;;;;28.77;29.85;99595.63;5051634;28;20033;-60
2022/07/22 09:06:32;;;;;;;2.05;1.20;;;;;;;28.47;31.10;99589.38;5051770;28;20036;-63
2022/07/22 09:09:05;;;;;;;2.47;1.27;;;;;;;28.50;30.77;99590.78;5050665;28;20048;-62
2022/07/22 09:11:31;;;;;;;3.38;1.30;;;;;;;28.32;31.88;99591.84;5051794;28;20048;-61
2022/07/22 09:13:59;;;;;;;2.42;1.30;;;;;;;28.55;31.98;99595.56;5051441;28;20079;-61
2022/07/22 09:16:45;;;;;;;2.75;1.05;;;;;;;29.02;30.56;99598.00;5051673;28;20032;-60
2022/07/22 09:19:10;;;;;;;;;;;;;;;29.67;29.15;99614.09;5051979;28;20041;-60
2022/07/22 09:21:39;;;;;;;5.22;1.02;;;;;;;29.13;29.44;99598.16;5051787;28;20361;-62
2022/07/22 09:24:06;;;;;;;1.27;1.17;;;;;;;28.71;30.53;99586.47;5051465;28;20040;-59
2022/07/22 09:26:36;;;;;;;3.58;1.38;;;;;;;28.83;30.79;99619.47;5051401;28;20040;-62
2022/07/22 09:29:04;;;;;;;2.95;1.25;;;;;;;28.88;30.10;99614.03;5051354;28;20036;-61
2022/07/22 09:31:33;;;;;;;3.83;1.60;;;;;;;28.75;30.11;99593.16;5051210;28;20036;-60
2022/07/22 09:33:59;;;;;;;4.53;1.08;;;;;;;28.50;30.48;99597.13;5051258;28;20036;-60
2022/07/22 09:36:25;;;;;;;1.50;1.00;;;;;;;28.58;31.20;99600.56;5051403;28;20064;-61
2022/07/22 09:38:51;;;;;;;1.13;1.00;;;;;;;28.77;30.16;99590.97;5051036;28;20060;-61
2022/07/22 09:41:17;;;;;;;1.52;1.17;;;;;;;28.81;30.95;99596.00;5051379;28;20075;-62
2022/07/22 09:43:43;;;;;;;1.15;1.13;;;;;;;29.17;30.48;99578.09;5051085;28;20044;-60
2022/07/22 09:46:09;;;;;;;1.52;1.25;;;;;;;29.54;29.20;99600.66;5050668;28;20037;-61
2022/07/22 09:48:36;;;;;;;4.35;1.27;;;;;;;29.36;29.51;99597.13;5051080;28;20449;-61
2022/07/22 09:51:02;;;;;;;2.65;1.65;;;;;;;29.08;30.30;99602.50;5051430;28;20029;-62
2022/07/22 09:53:29;;;;;;;1.30;1.20;;;;;;;28.85;30.69;99597.16;5050938;28;20029;-61
2022/07/22 09:56:00;;;;;;;3.28;1.30;;;;;;;28.82;30.11;99592.16;5049488;28;20432;-60
2022/07/22 09:58:27;;;;;;;1.30;1.15;;;;;;;28.57;30.81;99593.38;5050128;28;20453;-60
2022/07/22 10:00:53;;;;;;;3.33;1.38;;;;;;;28.61;30.31;99608.31;5050744;28;20056;-61
2022/07/22 10:03:28;;;;;;;3.60;1.33;;;;;;;28.88;29.94;99599.41;5051165;28;20451;-61
2022/07/22 10:05:54;;;;;;;2.28;1.15;;;;;;;28.76;30.58;99605.84;5051076;28;20048;-60
2022/07/22 10:08:20;;;;;;;3.00;1.35;;;;;;;28.70;31.36;99590.31;5051370;28;20124;-60
2022/07/22 10:10:45;;;;;;;1.55;1.40;;;;;;;28.74;30.37;99602.50;5050855;28;20116;-62
2022/07/22 10:13:11;;;;;;;3.97;1.27;;;;;;;28.48;30.65;99598.47;5049596;28;20036;-61
2022/07/22 10:15:37;;;;;;;3.13;1.33;;;;;;;28.11;31.60;99607.94;5051128;28;20029;-61
2022/07/22 10:18:13;;;;;;;4.05;1.88;;;;;;;27.96;31.86;99607.63;5049695;28;20025;-61
2022/07/22 10:20:39;;;;;;;1.60;1.20;;;;;;;27.82;31.99;99579.56;5050722;28;20102;-60
2022/07/22 10:23:09;;;;;;;1.95;1.17;;;;;;;28.16;31.67;99605.31;5051069;28;20416;-60
2022/07/22 10:26:02;;;;;;;2.40;1.40;;;;;;;28.52;30.33;99599.63;5050810;28;20478;-61
2022/07/22 10:28:35;;;;;;;1.45;1.35;;;;;;;28.24;30.65;99598.59;5050134;28;20333;-60
2022/07/22 10:31:22;;;;;;;1.98;1.25;;;;;;;28.36;31.23;99601.28;5050664;28;20354;-62
2022/07/22 10:33:54;;;;;;;3.22;1.40;;;;;;;28.44;31.31;99609.13;5051171;28;20037;-62
2022/07/22 10:36:34;;;;;;;4.28;1.48;;;;;;;28.57;30.40;99602.47;5050743;28;20044;-61
2022/07/22 10:39:11;;;;;;;2.42;1.40;;;;;;;28.44;30.53;99620.13;5032882;28;20356;-61
2022/07/22 10:41:39;;;;;;;2.38;1.48;;;;;;;28.16;31.50;99610.81;5049622;28;20031;-62
2022/07/22 10:44:05;;;;;;;2.10;1.80;;;;;;;27.96;31.79;99602.13;5054685;28;20033;-61
2022/07/22 10:46:52;;;;;;;3.38;1.40;;;;;;;28.31;31.56;99620.47;5054176;28;20162;-61
2022/07/22 10:49:24;;;;;;;1.40;1.30;;;;;;;28.50;31.00;99619.16;5054379;28;20029;-61
2022/07/22 10:52:22;;;;;;;4.90;1.80;;;;;;;28.59;30.73;99611.34;5054525;28;20124;-61
2022/07/22 10:55:16;;;;;;;4.40;1.40;;;;;;;28.89;29.84;99609.34;5054075;28;20045;-61
2022/07/22 10:57:42;;;;;;;4.13;1.48;;;;;;;28.40;30.64;99596.94;5054100;28;20032;-60
2022/07/22 11:00:08;;;;;;;2.28;1.60;;;;;;;28.27;30.92;99613.78;5054046;28;20029;-61
2022/07/22 11:02:36;;;;;;;4.80;1.42;;;;;;;28.32;31.02;99600.09;5054315;28;20469;-60
2022/07/22 11:05:03;;;;;;;2.53;1.88;;;;;;;28.56;30.79;99599.97;5052877;28;20052;-61
2022/07/22 11:07:31;;;;;;;3.38;1.52;;;;;;;28.69;31.40;99605.13;5052715;28;20033;-61
2022/07/22 11:10:19;;;;;;;3.80;1.70;;;;;;;28.90;30.71;99606.38;5054041;28;20025;-61
2022/07/22 11:12:46;;;;;;;4.40;1.80;;;;;;;28.81;31.35;99610.59;5053969;28;20056;-61
2022/07/22 11:15:12;;;;;;;3.35;1.30;;;;;;;28.82;30.98;99598.53;5053971;28;20040;-62
2022/07/22 11:17:38;;;;;;;3.38;1.45;;;;;;;28.88;31.43;99619.56;5053855;28;20082;-61
2022/07/22 11:20:09;;;;;;;1.85;1.50;;;;;;;29.10;30.92;99615.19;5053703;28;20099;-60
2022/07/22 11:22:35;;;;;;;2.03;1.40;;;;;;;29.21;30.55;99606.00;5053769;28;20057;-61
2022/07/22 11:25:03;;;;;;;3.13;1.20;;;;;;;29.48;30.18;99610.81;5052398;28;20389;-60
2022/07/22 11:27:29;;;;;;;3.47;1.60;;;;;;;29.47;29.74;99596.19;5053565;28;20059;-60
2022/07/22 11:29:56;;;;;;;1.95;1.42;;;;;;;29.34;29.40;99605.63;5053846;28;20033;-61
2022/07/22 11:32:23;;;;;;;3.00;1.60;;;;;;;28.99;29.38;99611.44;5052538;28;20052;-62